createdAt,value
2016-08-04T00:00:07.435Z,71.7
2016-08-04T00:00:17.431Z,72.5
2016-08-04T00:00:27.421Z,72
2016-08-04T00:00:36.693Z,72.1
2016-08-04T00:00:47.420Z,72.2
2016-08-04T00:00:57.418Z,72
2016-08-04T00:01:07.414Z,71.8
2016-08-04T00:01:17.420Z,72.1
2016-08-04T00:01:27.411Z,71.9
2016-08-04T00:01:37.411Z,72.2
2016-08-04T00:01:47.408Z,71.9
2016-08-04T00:01:57.408Z,71.8
2016-08-04T00:02:07.405Z,71.8
2016-08-04T00:02:17.402Z,72
2016-08-04T00:02:27.397Z,71.8
2016-08-04T00:02:37.399Z,72
2016-08-04T00:02:47.396Z,71.9
2016-08-04T00:02:56.662Z,72.2
2016-08-04T00:03:07.389Z,72.4
2016-08-04T00:03:17.390Z,72.5
2016-08-04T00:03:27.391Z,71.8
2016-08-04T00:03:37.386Z,72.4
2016-08-04T00:03:47.391Z,72.1
2016-08-04T00:03:57.385Z,72.1
2016-08-04T00:04:07.376Z,72.1
2016-08-04T00:04:17.377Z,71.9
2016-08-04T00:04:27.378Z,72
2016-08-04T00:04:47.374Z,71.9
2016-08-04T00:04:57.368Z,72.1
2016-08-04T00:05:07.368Z,72
2016-08-04T00:05:17.365Z,72
2016-08-04T00:05:27.360Z,72.4
2016-08-04T00:05:37.360Z,72
2016-08-04T00:05:47.360Z,72.1
2016-08-04T00:05:57.357Z,72.4
2016-08-04T00:06:06.627Z,72.2
2016-08-04T00:06:17.355Z,72.4
2016-08-04T00:06:27.353Z,72.1
2016-08-04T00:06:37.349Z,72.1
2016-08-04T00:06:47.350Z,71.8
2016-08-04T00:06:57.345Z,71.8
2016-08-04T00:07:07.343Z,71.8
2016-08-04T00:07:17.342Z,71.8
2016-08-04T00:07:27.344Z,71.8
2016-08-04T00:07:36.616Z,71.8
2016-08-04T00:07:47.339Z,71.8
2016-08-04T00:07:57.337Z,71.8
2016-08-04T00:08:07.335Z,71.9
2016-08-04T00:08:17.331Z,72.1
2016-08-04T00:08:25.874Z,71.7
2016-08-04T00:08:37.328Z,72.3
2016-08-04T00:08:47.329Z,71.9
2016-08-04T00:08:57.324Z,71.9
2016-08-04T00:09:07.321Z,72
2016-08-04T00:09:17.318Z,72.4
2016-08-04T00:09:27.317Z,72.2
2016-08-04T00:09:37.311Z,71.9
2016-08-04T00:09:47.314Z,72.4
2016-08-04T00:09:57.310Z,72.1
2016-08-04T00:10:07.307Z,72
2016-08-04T00:10:17.309Z,71.9
2016-08-04T00:10:27.303Z,72.4
2016-08-04T00:10:37.305Z,71.8
2016-08-04T00:10:47.301Z,72.1
2016-08-04T00:10:57.298Z,72.1
2016-08-04T00:11:07.296Z,72
2016-08-04T00:11:17.298Z,72.1
2016-08-04T00:11:27.291Z,71.6
2016-08-04T00:11:37.291Z,71.8
2016-08-04T00:11:47.287Z,71.8
2016-08-04T00:11:57.287Z,71.8
2016-08-04T00:12:07.287Z,71.9
2016-08-04T00:12:17.284Z,71.8
2016-08-04T00:12:27.286Z,72.2
2016-08-04T00:12:37.281Z,72
2016-08-04T00:12:47.279Z,71.9
2016-08-04T00:12:57.274Z,72.1
2016-08-04T00:13:07.271Z,72.1
2016-08-04T00:13:17.276Z,72.5
2016-08-04T00:13:27.266Z,72.1
2016-08-04T00:13:37.272Z,72.1
2016-08-04T00:13:47.268Z,71.9
2016-08-04T00:13:57.262Z,72
2016-08-04T00:14:07.261Z,71.9
2016-08-04T00:14:17.258Z,71.9
2016-08-04T00:14:27.253Z,72.3
2016-08-04T00:14:37.255Z,71.9
2016-08-04T00:14:47.254Z,72.1
2016-08-04T00:14:57.245Z,72.3
2016-08-04T00:15:07.250Z,72.2
2016-08-04T00:15:17.247Z,72.4
2016-08-04T00:15:27.245Z,71.8
2016-08-04T00:15:37.245Z,72.2
2016-08-04T00:15:47.241Z,72.3
2016-08-04T00:15:57.236Z,72.1
2016-08-04T00:16:07.237Z,71.9
2016-08-04T00:16:17.235Z,72
2016-08-04T00:16:27.231Z,72.1
2016-08-04T00:16:37.282Z,72
2016-08-04T00:16:47.232Z,72.2
2016-08-04T00:16:57.233Z,72.1
2016-08-04T00:17:07.225Z,72
2016-08-04T00:17:17.226Z,72.1
2016-08-04T00:17:27.220Z,72
2016-08-04T00:17:37.222Z,72.3
2016-08-04T00:17:47.215Z,71.8
2016-08-04T00:17:57.218Z,72.1
2016-08-04T00:18:07.214Z,72.2
2016-08-04T00:18:17.210Z,72
2016-08-04T00:18:27.212Z,72.1
2016-08-04T00:18:36.488Z,72.4
2016-08-04T00:18:47.222Z,72
2016-08-04T00:18:57.199Z,72
2016-08-04T00:19:07.203Z,72
2016-08-04T00:19:17.202Z,72.2
2016-08-04T00:19:37.199Z,72.1
2016-08-04T00:19:57.191Z,72.2
2016-08-04T00:20:06.461Z,72
2016-08-04T00:20:17.187Z,72
2016-08-04T00:20:27.185Z,72
2016-08-04T00:20:37.190Z,71.8
2016-08-04T00:20:47.183Z,72.1
2016-08-04T00:20:56.450Z,72.1
2016-08-04T00:21:07.172Z,72.1
2016-08-04T00:21:17.179Z,72.1
2016-08-04T00:21:27.176Z,72.3
2016-08-04T00:21:37.174Z,72.2
2016-08-04T00:21:47.170Z,71.8
2016-08-04T00:21:57.169Z,71.9
2016-08-04T00:22:07.166Z,72.1
2016-08-04T00:22:17.166Z,72.1
2016-08-04T00:22:27.162Z,72.1
2016-08-04T00:22:37.161Z,71.8
2016-08-04T00:22:47.159Z,72.2
2016-08-04T00:22:57.156Z,72
2016-08-04T00:23:07.155Z,72
2016-08-04T00:23:17.153Z,72.1
2016-08-04T00:23:27.150Z,72
2016-08-04T00:23:36.421Z,72.4
2016-08-04T00:23:47.145Z,72
2016-08-04T00:23:57.145Z,72
2016-08-04T00:24:07.141Z,71.9
2016-08-04T00:24:17.143Z,71.8
2016-08-04T00:24:27.138Z,72.5
2016-08-04T00:24:37.139Z,71.9
2016-08-04T00:24:47.134Z,72.1
2016-08-04T00:24:57.141Z,71.9
2016-08-04T00:25:07.130Z,71.8
2016-08-04T00:25:17.129Z,72
2016-08-04T00:25:27.126Z,72
2016-08-04T00:25:37.123Z,72.1
2016-08-04T00:25:47.122Z,72
2016-08-04T00:25:57.120Z,72.2
2016-08-04T00:26:07.116Z,72
2016-08-04T00:26:17.120Z,72.1
2016-08-04T00:26:27.113Z,72.5
2016-08-04T00:26:37.165Z,71.9
2016-08-04T00:26:47.115Z,72.1
2016-08-04T00:26:57.110Z,72
2016-08-04T00:27:07.106Z,72
2016-08-04T00:27:17.107Z,72
2016-08-04T00:27:27.108Z,72.3
2016-08-04T00:27:37.103Z,72
2016-08-04T00:27:47.099Z,72.1
2016-08-04T00:27:57.100Z,71.9
2016-08-04T00:28:07.093Z,72
2016-08-04T00:28:17.091Z,72
2016-08-04T00:28:26.364Z,72.1
2016-08-04T00:28:37.094Z,72
2016-08-04T00:28:47.086Z,72.1
2016-08-04T00:28:57.111Z,72
2016-08-04T00:29:07.082Z,72.2
2016-08-04T00:29:17.085Z,72.1
2016-08-04T00:29:27.080Z,72.1
2016-08-04T00:29:37.076Z,72.2
2016-08-04T00:29:47.085Z,72
2016-08-04T00:29:57.071Z,72
2016-08-04T00:30:07.072Z,72.5
2016-08-04T00:30:17.071Z,72.1
2016-08-04T00:30:27.062Z,71.5
2016-08-04T00:30:37.067Z,72
2016-08-04T00:30:47.065Z,72
2016-08-04T00:30:57.062Z,71.9
2016-08-04T00:31:07.060Z,72
2016-08-04T00:31:16.327Z,72.1
2016-08-04T00:31:26.331Z,72.2
2016-08-04T00:31:37.052Z,72.1
2016-08-04T00:31:47.051Z,72.1
2016-08-04T00:31:57.051Z,72
2016-08-04T00:32:06.321Z,72
2016-08-04T00:32:17.044Z,72.2
2016-08-04T00:32:27.056Z,71.9
2016-08-04T00:32:37.041Z,72
2016-08-04T00:32:47.041Z,72.1
2016-08-04T00:32:57.035Z,71.9
2016-08-04T00:33:07.050Z,72.1
2016-08-04T00:33:16.306Z,72.1
2016-08-04T00:33:27.030Z,72.1
2016-08-04T00:33:37.037Z,72
2016-08-04T00:33:47.025Z,72
2016-08-04T00:33:57.027Z,71.8
2016-08-04T00:34:07.023Z,71.9
2016-08-04T00:34:17.024Z,72.3
2016-08-04T00:34:27.020Z,72.1
2016-08-04T00:34:47.018Z,72
2016-08-04T00:34:57.016Z,72
2016-08-04T00:35:07.013Z,72.1
2016-08-04T00:35:17.015Z,72
2016-08-04T00:35:27.006Z,72.1
2016-08-04T00:35:37.004Z,72.1
2016-08-04T00:35:46.275Z,71.9
2016-08-04T00:35:57.003Z,72.1
2016-08-04T00:36:07.002Z,72.3
2016-08-04T00:36:16.995Z,72.4
2016-08-04T00:36:26.995Z,72.2
2016-08-04T00:36:36.994Z,72.1
2016-08-04T00:36:46.995Z,72
2016-08-04T00:36:56.990Z,72.4
2016-08-04T00:37:06.986Z,71.9
2016-08-04T00:37:16.984Z,72
2016-08-04T00:37:26.983Z,71.8
2016-08-04T00:37:36.982Z,71.8
2016-08-04T00:37:46.977Z,72
2016-08-04T00:37:56.982Z,71.8
2016-08-04T00:38:06.978Z,72.5
2016-08-04T00:38:16.975Z,72.5
2016-08-04T00:38:26.971Z,71.4
2016-08-04T00:38:36.972Z,72.1
2016-08-04T00:38:46.976Z,72
2016-08-04T00:38:56.963Z,71.9
2016-08-04T00:39:06.964Z,71.8
2016-08-04T00:39:16.960Z,72.2
2016-08-04T00:39:26.960Z,72
2016-08-04T00:39:36.957Z,71.8
2016-08-04T00:39:46.956Z,72
2016-08-04T00:39:56.952Z,72.4
2016-08-04T00:40:06.953Z,71.8
2016-08-04T00:40:16.953Z,72.4
2016-08-04T00:40:26.950Z,72.4
2016-08-04T00:40:36.951Z,72
2016-08-04T00:40:46.945Z,71.8
2016-08-04T00:40:56.940Z,71.9
2016-08-04T00:41:06.937Z,72.1
2016-08-04T00:41:16.939Z,72.1
2016-08-04T00:41:26.938Z,72.3
2016-08-04T00:41:36.932Z,72
2016-08-04T00:41:46.933Z,72
2016-08-04T00:41:56.929Z,72.5
2016-08-04T00:42:06.928Z,72
2016-08-04T00:42:16.926Z,72
2016-08-04T00:42:26.192Z,72.2
2016-08-04T00:42:36.925Z,71.8
2016-08-04T00:42:46.920Z,71.9
2016-08-04T00:42:56.918Z,71.8
2016-08-04T00:43:06.913Z,71.8
2016-08-04T00:43:16.915Z,71.8
2016-08-04T00:43:26.909Z,71.8
2016-08-04T00:43:36.913Z,71.8
2016-08-04T00:43:46.911Z,71.9
2016-08-04T00:43:56.906Z,71.8
2016-08-04T00:44:06.905Z,71.8
2016-08-04T00:44:16.907Z,71.8
2016-08-04T00:44:26.172Z,71.8
2016-08-04T00:44:36.898Z,71.8
2016-08-04T00:44:46.894Z,72
2016-08-04T00:44:56.895Z,72
2016-08-04T00:45:06.891Z,71.8
2016-08-04T00:45:16.889Z,71.7
2016-08-04T00:45:26.895Z,71.8
2016-08-04T00:45:36.886Z,71.8
2016-08-04T00:45:46.883Z,71.4
2016-08-04T00:45:56.878Z,71.5
2016-08-04T00:46:06.878Z,71.7
2016-08-04T00:46:16.147Z,71.4
2016-08-04T00:46:26.875Z,71.8
2016-08-04T00:46:36.872Z,72
2016-08-04T00:46:46.872Z,71.8
2016-08-04T00:46:56.870Z,71.8
2016-08-04T00:47:06.876Z,71.5
2016-08-04T00:47:16.864Z,71.7
2016-08-04T00:47:26.868Z,71.9
2016-08-04T00:47:36.863Z,71.6
2016-08-04T00:47:46.858Z,71.8
2016-08-04T00:47:56.128Z,71.4
2016-08-04T00:48:06.857Z,71.7
2016-08-04T00:48:16.856Z,71.8
2016-08-04T00:48:26.849Z,72
2016-08-04T00:48:36.855Z,71.9
2016-08-04T00:48:46.850Z,71.8
2016-08-04T00:48:56.846Z,71.5
2016-08-04T00:49:06.842Z,71.3
2016-08-04T00:49:16.843Z,71.8
2016-08-04T00:49:26.839Z,71.4
2016-08-04T00:49:46.838Z,71.8
2016-08-04T00:49:56.843Z,71.8
2016-08-04T00:50:06.833Z,71.8
2016-08-04T00:50:16.834Z,71.5
2016-08-04T00:50:26.829Z,71.5
2016-08-04T00:50:36.831Z,71.4
2016-08-04T00:50:46.825Z,71.8
2016-08-04T00:50:56.824Z,71.5
2016-08-04T00:51:06.826Z,71.7
2016-08-04T00:51:16.822Z,71.8
2016-08-04T00:51:26.819Z,71.9
2016-08-04T00:51:36.084Z,72
2016-08-04T00:51:46.085Z,71.8
2016-08-04T00:51:56.813Z,71.8
2016-08-04T00:52:06.813Z,71.8
2016-08-04T00:52:16.806Z,71.5
2016-08-04T00:52:26.805Z,72
2016-08-04T00:52:36.806Z,72.1
2016-08-04T00:52:46.802Z,71.8
2016-08-04T00:52:56.802Z,71.8
2016-08-04T00:53:06.799Z,71.9
2016-08-04T00:53:16.066Z,71.9
2016-08-04T00:53:26.794Z,71.8
2016-08-04T00:53:36.790Z,72.1
2016-08-04T00:53:46.056Z,72
2016-08-04T00:53:56.786Z,71.8
2016-08-04T00:54:06.780Z,71.8
2016-08-04T00:54:16.785Z,72
2016-08-04T00:54:26.051Z,71.8
2016-08-04T00:54:36.778Z,71.8
2016-08-04T00:54:46.775Z,71.9
2016-08-04T00:54:56.775Z,72
2016-08-04T00:55:06.773Z,72.3
2016-08-04T00:55:16.774Z,72.2
2016-08-04T00:55:26.773Z,72.1
2016-08-04T00:55:36.771Z,72.1
2016-08-04T00:55:46.765Z,72
2016-08-04T00:55:56.762Z,72
2016-08-04T00:56:06.759Z,72.2
2016-08-04T00:56:16.760Z,72
2016-08-04T00:56:26.763Z,72.2
2016-08-04T00:56:36.755Z,72.2
2016-08-04T00:56:46.750Z,71.8
2016-08-04T00:56:56.747Z,71.9
2016-08-04T00:57:06.750Z,71.8
2016-08-04T00:57:16.748Z,72.1
2016-08-04T00:57:26.753Z,71.9
2016-08-04T00:57:36.745Z,71.8
2016-08-04T00:57:46.737Z,72
2016-08-04T00:57:56.011Z,71.8
2016-08-04T00:58:06.739Z,71.4
2016-08-04T00:58:16.736Z,71.5
2016-08-04T00:58:26.732Z,71.8
2016-08-04T00:58:36.735Z,71.8
2016-08-04T00:58:46.732Z,71.8
2016-08-04T00:58:56.728Z,71.6
2016-08-04T00:59:06.730Z,72
2016-08-04T00:59:16.727Z,71.8
2016-08-04T00:59:26.723Z,71.8
2016-08-04T00:59:36.722Z,71.8
2016-08-04T00:59:46.718Z,72
2016-08-04T00:59:56.715Z,71.8
2016-08-04T01:00:06.712Z,71.8
2016-08-04T01:00:16.711Z,71.7
2016-08-04T01:00:26.715Z,71.8
2016-08-04T01:00:36.711Z,71.8
2016-08-04T01:00:46.708Z,71.8
2016-08-04T01:00:56.705Z,72
2016-08-04T01:01:06.708Z,72
2016-08-04T01:01:16.701Z,71.8
2016-08-04T01:01:26.699Z,71.7
2016-08-04T01:01:36.692Z,71.7
2016-08-04T01:01:46.693Z,71.8
2016-08-04T01:01:56.691Z,72.1
2016-08-04T01:02:06.690Z,72.1
2016-08-04T01:02:15.957Z,71.7
2016-08-04T01:02:26.681Z,71.8
2016-08-04T01:02:36.683Z,71.9
2016-08-04T01:02:45.960Z,72.3
2016-08-04T01:02:56.677Z,71.8
2016-08-04T01:03:06.676Z,72.1
2016-08-04T01:03:16.676Z,72
2016-08-04T01:03:26.678Z,72.3
2016-08-04T01:03:36.671Z,71.6
2016-08-04T01:03:46.672Z,72
2016-08-04T01:03:56.667Z,71.8
2016-08-04T01:04:06.667Z,71.7
2016-08-04T01:04:16.671Z,71.8
2016-08-04T01:04:26.663Z,72
2016-08-04T01:04:46.658Z,72.3
2016-08-04T01:04:55.927Z,71.9
2016-08-04T01:05:06.652Z,71.7
2016-08-04T01:05:16.653Z,71.9
2016-08-04T01:05:25.924Z,71.8
2016-08-04T01:05:36.652Z,71.8
2016-08-04T01:05:46.647Z,71.8
2016-08-04T01:05:55.915Z,71.9
2016-08-04T01:06:06.640Z,71.9
2016-08-04T01:06:16.647Z,72
2016-08-04T01:06:26.638Z,71.9
2016-08-04T01:06:36.633Z,72.4
2016-08-04T01:06:46.643Z,72.3
2016-08-04T01:06:56.639Z,72.1
2016-08-04T01:07:06.627Z,72
2016-08-04T01:07:16.627Z,72.5
2016-08-04T01:07:25.897Z,72.1
2016-08-04T01:07:36.625Z,72
2016-08-04T01:07:46.621Z,71.8
2016-08-04T01:07:56.625Z,71.8
2016-08-04T01:08:06.621Z,71.9
2016-08-04T01:08:16.618Z,71.8
2016-08-04T01:08:26.610Z,72.3
2016-08-04T01:08:36.618Z,72
2016-08-04T01:08:46.607Z,72
2016-08-04T01:08:56.609Z,72
2016-08-04T01:09:06.607Z,71.9
2016-08-04T01:09:16.611Z,72.1
2016-08-04T01:09:25.877Z,72.1
2016-08-04T01:09:36.600Z,72.1
2016-08-04T01:09:46.600Z,72.1
2016-08-04T01:09:55.877Z,71.9
2016-08-04T01:10:06.597Z,71.8
2016-08-04T01:10:16.594Z,71.8
2016-08-04T01:10:26.594Z,72.2
2016-08-04T01:10:36.588Z,72.1
2016-08-04T01:10:46.586Z,72
2016-08-04T01:10:56.583Z,72.1
2016-08-04T01:11:06.581Z,72
2016-08-04T01:11:16.580Z,72.2
2016-08-04T01:11:26.579Z,72.1
2016-08-04T01:11:35.846Z,72.1
2016-08-04T01:11:46.581Z,72.1
2016-08-04T01:11:56.575Z,72.2
2016-08-04T01:12:06.572Z,72
2016-08-04T01:12:16.569Z,71.8
2016-08-04T01:12:25.847Z,72
2016-08-04T01:12:36.565Z,72.2
2016-08-04T01:12:46.565Z,72.1
2016-08-04T01:12:56.568Z,72
2016-08-04T01:13:06.563Z,72.1
2016-08-04T01:13:16.556Z,71.8
2016-08-04T01:13:26.560Z,71.9
2016-08-04T01:13:36.559Z,72.5
2016-08-04T01:13:46.552Z,72.1
2016-08-04T01:13:56.550Z,71.8
2016-08-04T01:14:06.545Z,72
2016-08-04T01:14:16.549Z,71.8
2016-08-04T01:14:26.542Z,72.1
2016-08-04T01:14:36.541Z,72.3
2016-08-04T01:14:46.540Z,72.5
2016-08-04T01:14:56.542Z,72.1
2016-08-04T01:15:06.534Z,72.5
2016-08-04T01:15:16.532Z,72.2
2016-08-04T01:15:26.538Z,72.3
2016-08-04T01:15:36.529Z,72.7
2016-08-04T01:15:46.526Z,72.5
2016-08-04T01:15:56.523Z,72
2016-08-04T01:16:06.523Z,72.6
2016-08-04T01:16:16.527Z,72.4
2016-08-04T01:16:26.520Z,72.1
2016-08-04T01:16:35.789Z,72.1
2016-08-04T01:16:46.519Z,72.3
2016-08-04T01:16:55.782Z,72.3
2016-08-04T01:17:06.509Z,72.7
2016-08-04T01:17:16.509Z,72.3
2016-08-04T01:17:26.507Z,72.4
2016-08-04T01:17:36.507Z,72.5
2016-08-04T01:17:46.514Z,72.4
2016-08-04T01:17:56.503Z,72.2
2016-08-04T01:18:06.499Z,71.9
2016-08-04T01:18:16.498Z,72.2
2016-08-04T01:18:26.494Z,72.1
2016-08-04T01:18:36.498Z,71.8
2016-08-04T01:18:46.491Z,72.5
2016-08-04T01:18:56.486Z,72.4
2016-08-04T01:19:06.487Z,72.2
2016-08-04T01:19:16.485Z,72.3
2016-08-04T01:19:26.483Z,72.3
2016-08-04T01:19:36.484Z,72.2
2016-08-04T01:20:06.472Z,72.3
2016-08-04T01:20:16.479Z,72.4
2016-08-04T01:20:26.478Z,72.5
2016-08-04T01:20:36.468Z,72.6
2016-08-04T01:20:46.468Z,72.3
2016-08-04T01:20:55.733Z,72.3
2016-08-04T01:21:06.462Z,72.6
2016-08-04T01:21:16.463Z,72.6
2016-08-04T01:21:26.461Z,72.4
2016-08-04T01:21:36.461Z,72.3
2016-08-04T01:21:46.462Z,72.6
2016-08-04T01:21:56.458Z,72.4
2016-08-04T01:22:06.454Z,72.4
2016-08-04T01:22:16.448Z,72.7
2016-08-04T01:22:26.449Z,72.6
2016-08-04T01:22:36.443Z,72.3
2016-08-04T01:22:46.452Z,72.4
2016-08-04T01:22:56.443Z,72.4
2016-08-04T01:23:06.442Z,72.5
2016-08-04T01:23:16.438Z,72.4
2016-08-04T01:23:26.438Z,72.5
2016-08-04T01:23:36.435Z,73
2016-08-04T01:23:46.433Z,72.5
2016-08-04T01:23:56.431Z,72.5
2016-08-04T01:24:05.702Z,72.4
2016-08-04T01:24:16.429Z,72.5
2016-08-04T01:24:26.424Z,72.3
2016-08-04T01:24:36.426Z,72.3
2016-08-04T01:24:46.422Z,72.4
2016-08-04T01:24:56.416Z,72.3
2016-08-04T01:25:06.415Z,72.5
2016-08-04T01:25:16.414Z,72.4
2016-08-04T01:25:26.409Z,72.3
2016-08-04T01:25:36.409Z,72.4
2016-08-04T01:25:46.404Z,72.5
2016-08-04T01:25:56.411Z,72.2
2016-08-04T01:26:06.403Z,72.6
2016-08-04T01:26:15.671Z,72.4
2016-08-04T01:26:26.399Z,72.3
2016-08-04T01:26:36.408Z,72.2
2016-08-04T01:26:45.667Z,72.4
2016-08-04T01:26:56.393Z,72.4
2016-08-04T01:27:06.393Z,72.4
2016-08-04T01:27:16.388Z,72.4
2016-08-04T01:27:26.389Z,72.4
2016-08-04T01:27:36.382Z,72.3
2016-08-04T01:27:46.390Z,72.4
2016-08-04T01:27:56.382Z,72.3
2016-08-04T01:28:06.383Z,71.7
2016-08-04T01:28:16.377Z,72.4
2016-08-04T01:28:25.650Z,72.6
2016-08-04T01:28:36.373Z,72.5
2016-08-04T01:28:46.372Z,72.6
2016-08-04T01:28:56.370Z,72.1
2016-08-04T01:29:06.365Z,72.6
2016-08-04T01:29:16.368Z,72.5
2016-08-04T01:29:26.365Z,72.4
2016-08-04T01:29:35.632Z,72.5
2016-08-04T01:29:46.359Z,72.9
2016-08-04T01:29:55.626Z,72.8
2016-08-04T01:30:06.357Z,72.2
2016-08-04T01:30:16.354Z,72.9
2016-08-04T01:30:26.353Z,72.6
2016-08-04T01:30:36.352Z,72.5
2016-08-04T01:30:46.348Z,72.3
2016-08-04T01:30:56.348Z,72.5
2016-08-04T01:31:06.344Z,73
2016-08-04T01:31:16.347Z,72.5
2016-08-04T01:31:26.343Z,72.5
2016-08-04T01:31:36.337Z,72.6
2016-08-04T01:31:46.331Z,72.6
2016-08-04T01:31:56.333Z,72.7
2016-08-04T01:32:06.337Z,72.5
2016-08-04T01:32:16.330Z,72.7
2016-08-04T01:32:26.327Z,72.7
2016-08-04T01:32:36.323Z,72.2
2016-08-04T01:32:46.324Z,72.4
2016-08-04T01:32:56.326Z,72
2016-08-04T01:33:06.320Z,72.5
2016-08-04T01:33:16.316Z,72
2016-08-04T01:33:26.322Z,72.4
2016-08-04T01:33:36.311Z,71.9
2016-08-04T01:33:45.580Z,72.4
2016-08-04T01:33:56.309Z,72.3
2016-08-04T01:34:06.303Z,72.4
2016-08-04T01:34:14.846Z,72.5
2016-08-04T01:34:26.300Z,72.1
2016-08-04T01:34:36.302Z,72.1
2016-08-04T01:34:46.306Z,72.4
2016-08-04T01:35:06.295Z,72.3
2016-08-04T01:35:16.295Z,72.4
2016-08-04T01:35:26.291Z,72.5
2016-08-04T01:35:36.295Z,72.6
2016-08-04T01:35:46.286Z,72.2
2016-08-04T01:35:56.284Z,73
2016-08-04T01:36:06.287Z,72.4
2016-08-04T01:36:16.282Z,72.4
2016-08-04T01:36:26.279Z,72.6
2016-08-04T01:36:36.280Z,72.3
2016-08-04T01:36:46.273Z,72.5
2016-08-04T01:36:56.268Z,72.4
2016-08-04T01:37:06.271Z,72.6
2016-08-04T01:37:16.270Z,72.5
2016-08-04T01:37:26.270Z,72.4
2016-08-04T01:37:35.536Z,72.1
2016-08-04T01:37:46.263Z,72.7
2016-08-04T01:37:56.261Z,72.4
2016-08-04T01:38:06.266Z,72.3
2016-08-04T01:38:16.257Z,73
2016-08-04T01:38:26.251Z,73
2016-08-04T01:38:36.269Z,72.8
2016-08-04T01:38:46.252Z,72.9
2016-08-04T01:38:56.249Z,73
2016-08-04T01:39:06.256Z,72.9
2016-08-04T01:39:16.251Z,72.7
2016-08-04T01:39:26.243Z,73
2016-08-04T01:39:36.242Z,72.8
2016-08-04T01:39:46.239Z,72.9
2016-08-04T01:39:56.237Z,73
2016-08-04T01:40:06.238Z,72.7
2016-08-04T01:40:16.232Z,72.5
2016-08-04T01:40:26.235Z,72.9
2016-08-04T01:40:36.231Z,73.1
2016-08-04T01:40:46.231Z,72.8
2016-08-04T01:40:56.227Z,73.2
2016-08-04T01:41:06.230Z,72.9
2016-08-04T01:41:15.492Z,72.9
2016-08-04T01:41:26.219Z,72.8
2016-08-04T01:41:36.219Z,72.9
2016-08-04T01:41:46.220Z,72.8
2016-08-04T01:41:56.219Z,73.2
2016-08-04T01:42:06.216Z,72.7
2016-08-04T01:42:16.210Z,72.7
2016-08-04T01:42:26.214Z,72.8
2016-08-04T01:42:36.205Z,72.9
2016-08-04T01:42:46.204Z,72.3
2016-08-04T01:42:56.199Z,72.5
2016-08-04T01:43:06.200Z,72.3
2016-08-04T01:43:16.198Z,73.2
2016-08-04T01:43:26.196Z,72.9
2016-08-04T01:43:36.195Z,72.6
2016-08-04T01:43:46.193Z,72.7
2016-08-04T01:43:56.191Z,72.7
2016-08-04T01:44:06.188Z,72.9
2016-08-04T01:44:16.184Z,73
2016-08-04T01:44:26.185Z,73
2016-08-04T01:44:36.186Z,72.5
2016-08-04T01:44:46.179Z,72.3
2016-08-04T01:44:56.180Z,72.2
2016-08-04T01:45:06.172Z,72.5
2016-08-04T01:45:16.175Z,72.5
2016-08-04T01:45:26.170Z,72.5
2016-08-04T01:45:36.178Z,72.4
2016-08-04T01:45:46.168Z,71.8
2016-08-04T01:45:56.166Z,72.1
2016-08-04T01:46:06.165Z,71.8
2016-08-04T01:46:16.168Z,72.2
2016-08-04T01:46:26.160Z,72.1
2016-08-04T01:46:36.155Z,72.1
2016-08-04T01:46:46.159Z,71.7
2016-08-04T01:46:56.153Z,72.6
2016-08-04T01:47:06.153Z,72.4
2016-08-04T01:47:16.149Z,72.4
2016-08-04T01:47:26.148Z,72.9
2016-08-04T01:47:36.146Z,72.3
2016-08-04T01:47:46.143Z,72.7
2016-08-04T01:47:56.142Z,72.6
2016-08-04T01:48:05.412Z,72.6
2016-08-04T01:48:16.134Z,72.4
2016-08-04T01:48:25.404Z,72.8
2016-08-04T01:48:35.405Z,73
2016-08-04T01:48:46.132Z,72.3
2016-08-04T01:48:56.131Z,72.6
2016-08-04T01:49:06.128Z,72.7
2016-08-04T01:49:16.129Z,72.4
2016-08-04T01:49:26.126Z,72.4
2016-08-04T01:49:36.122Z,72.5
2016-08-04T01:49:46.118Z,72.1
2016-08-04T01:50:05.663Z,72.9
2016-08-04T01:50:16.114Z,72.1
2016-08-04T01:50:26.110Z,71.8
2016-08-04T01:50:36.108Z,72.2
2016-08-04T01:50:46.110Z,72.5
2016-08-04T01:50:56.107Z,72.3
2016-08-04T01:51:06.102Z,72.3
2016-08-04T01:51:16.101Z,72.6
2016-08-04T01:51:26.102Z,72.7
2016-08-04T01:51:36.097Z,72.2
2016-08-04T01:51:46.098Z,72.3
2016-08-04T01:51:56.096Z,71.9
2016-08-04T01:52:06.094Z,72.1
2016-08-04T01:52:16.090Z,71.9
2016-08-04T01:52:26.095Z,72.1
2016-08-04T01:52:36.098Z,72.1
2016-08-04T01:52:45.355Z,72
2016-08-04T01:52:56.083Z,72.3
2016-08-04T01:53:06.079Z,72.3
2016-08-04T01:53:15.355Z,72.4
2016-08-04T01:53:26.077Z,72
2016-08-04T01:53:36.073Z,72.3
2016-08-04T01:53:46.074Z,72.4
2016-08-04T01:53:56.069Z,72.3
2016-08-04T01:54:06.065Z,72.7
2016-08-04T01:54:16.070Z,72
2016-08-04T01:54:26.064Z,72
2016-08-04T01:54:36.063Z,72.3
2016-08-04T01:54:46.059Z,72.4
2016-08-04T01:54:56.054Z,72
2016-08-04T01:55:06.058Z,72.1
2016-08-04T01:55:15.325Z,72.1
2016-08-04T01:55:26.051Z,71.9
2016-08-04T01:55:36.055Z,72.1
2016-08-04T01:55:46.047Z,72.4
2016-08-04T01:55:56.044Z,72.3
2016-08-04T01:56:06.043Z,72.4
2016-08-04T01:56:16.046Z,72.3
2016-08-04T01:56:26.041Z,72.2
2016-08-04T01:56:36.037Z,72.5
2016-08-04T01:56:46.038Z,72.4
2016-08-04T01:56:56.035Z,72.1
2016-08-04T01:57:06.032Z,72.6
2016-08-04T01:57:15.303Z,72.5
2016-08-04T01:57:26.024Z,72.3
2016-08-04T01:57:36.029Z,72.1
2016-08-04T01:57:46.025Z,71.9
2016-08-04T01:57:56.021Z,72
2016-08-04T01:58:06.021Z,72.1
2016-08-04T01:58:15.291Z,72.1
2016-08-04T01:58:26.012Z,72.1
2016-08-04T01:58:36.013Z,72.1
2016-08-04T01:58:46.011Z,72.1
2016-08-04T01:58:56.006Z,72
2016-08-04T01:59:06.006Z,71.8
2016-08-04T01:59:16.012Z,72
2016-08-04T01:59:26.007Z,71.9
2016-08-04T01:59:36.000Z,72.1
2016-08-04T01:59:46.001Z,72.1
2016-08-04T01:59:56.005Z,72.1
2016-08-04T02:00:05.997Z,71.9
2016-08-04T02:00:15.989Z,72.1
2016-08-04T02:00:25.989Z,72
2016-08-04T02:00:35.996Z,71.7
2016-08-04T02:00:45.260Z,72.3
2016-08-04T02:00:55.987Z,71.8
2016-08-04T02:01:05.988Z,72.1
2016-08-04T02:01:15.985Z,72
2016-08-04T02:01:25.981Z,71.8
2016-08-04T02:01:35.975Z,71.6
2016-08-04T02:01:45.975Z,72.1
2016-08-04T02:01:55.976Z,72.2
2016-08-04T02:02:05.970Z,71.8
2016-08-04T02:02:15.969Z,72
2016-08-04T02:02:25.976Z,71.8
2016-08-04T02:02:35.967Z,71.9
2016-08-04T02:02:45.963Z,72
2016-08-04T02:02:55.963Z,72.3
2016-08-04T02:03:05.962Z,72
2016-08-04T02:03:15.955Z,72.3
2016-08-04T02:03:25.950Z,72.1
2016-08-04T02:03:35.954Z,72.1
2016-08-04T02:03:45.957Z,71.9
2016-08-04T02:03:55.946Z,72.1
2016-08-04T02:04:05.944Z,71.8
2016-08-04T02:04:15.214Z,72.1
2016-08-04T02:04:25.942Z,72.1
2016-08-04T02:04:35.940Z,72.2
2016-08-04T02:04:45.941Z,72.2
2016-08-04T02:04:55.936Z,72.1
2016-08-04T02:05:15.934Z,72
2016-08-04T02:05:25.932Z,71.9
2016-08-04T02:05:35.200Z,72.1
2016-08-04T02:05:45.936Z,72.1
2016-08-04T02:05:55.926Z,71.9
2016-08-04T02:06:05.923Z,71.9
2016-08-04T02:06:15.926Z,72.2
2016-08-04T02:06:25.920Z,72.2
2016-08-04T02:06:35.913Z,72.4
2016-08-04T02:06:45.920Z,72
2016-08-04T02:06:55.912Z,72.2
2016-08-04T02:07:05.907Z,72.1
2016-08-04T02:07:15.909Z,72.1
2016-08-04T02:07:25.179Z,72.1
2016-08-04T02:07:35.905Z,71.8
2016-08-04T02:07:45.905Z,72.1
2016-08-04T02:07:55.902Z,71.8
2016-08-04T02:08:05.898Z,72.3
2016-08-04T02:08:15.898Z,72
2016-08-04T02:08:25.897Z,72.1
2016-08-04T02:08:35.893Z,72.1
2016-08-04T02:08:45.892Z,72.1
2016-08-04T02:08:55.896Z,72
2016-08-04T02:09:05.160Z,72.2
2016-08-04T02:09:15.892Z,72.3
2016-08-04T02:09:25.881Z,72.2
2016-08-04T02:09:35.880Z,71.9
2016-08-04T02:09:45.877Z,71.7
2016-08-04T02:09:55.881Z,72
2016-08-04T02:10:05.876Z,71.7
2016-08-04T02:10:15.870Z,72
2016-08-04T02:10:25.871Z,72.1
2016-08-04T02:10:35.138Z,72.1
2016-08-04T02:10:45.866Z,72
2016-08-04T02:10:55.863Z,72.4
2016-08-04T02:11:05.862Z,72.5
2016-08-04T02:11:15.862Z,71.8
2016-08-04T02:11:25.857Z,71.8
2016-08-04T02:11:35.857Z,71.8
2016-08-04T02:11:45.854Z,72
2016-08-04T02:11:55.851Z,72
2016-08-04T02:12:05.855Z,72
2016-08-04T02:12:15.847Z,72
2016-08-04T02:12:25.850Z,72
2016-08-04T02:12:35.846Z,72.1
2016-08-04T02:12:45.841Z,72.1
2016-08-04T02:12:55.840Z,72.5
2016-08-04T02:13:05.842Z,72.2
2016-08-04T02:13:15.836Z,71.8
2016-08-04T02:13:25.835Z,71.8
2016-08-04T02:13:35.831Z,72
2016-08-04T02:13:45.834Z,72.2
2016-08-04T02:13:55.830Z,72.1
2016-08-04T02:14:05.823Z,72.4
2016-08-04T02:14:15.829Z,71.9
2016-08-04T02:14:25.822Z,72.1
2016-08-04T02:14:35.820Z,72.4
2016-08-04T02:14:45.819Z,72.3
2016-08-04T02:14:55.821Z,72.4
2016-08-04T02:15:05.087Z,71.7
2016-08-04T02:15:15.816Z,72.3
2016-08-04T02:15:25.809Z,72.4
2016-08-04T02:15:35.810Z,72.3
2016-08-04T02:15:45.807Z,72
2016-08-04T02:15:55.804Z,72.1
2016-08-04T02:16:05.803Z,72
2016-08-04T02:16:15.804Z,72.1
2016-08-04T02:16:25.796Z,72.4